Archival Weather

Prince Abdulmajeed Bin Abdula

Prince Abdulmajeed Bin Abdula, Saudi Arabia (OEAO)

Report from: Monday, May 23, 2022 8:00 AM UTC
Current time: Tuesday, August 16, 2022 6:21 AM UTC

Current weather
Weather history
Weather forecast

Temperature30.0°C (86.0°F)
Heat index28.1°C (82.7°F)
Dew point0.0°C (32.0°F)
Winds 10 kts (5.1 m/s, 11.5 mph) North-Northeast (30°)
Clouds Sky clear
Altimeter29.88 in.Hg (1012 mB)
Relative humidity14 %
Density altitude1,859 ft. (567 m)
Remarks Ceiling and visibility OK
No significant changes expected in the next two hours
Flight conditions Visual Meteorological Conditions
Raw dataOEAO 230800Z 03010KT CAVOK 30/00 Q1012 NOSIG
An error has occurred. This application may no longer respond until reloaded. Reload 🗙